Time;durP1;ratioP1;P1;durP2;ratioP2;P2;SDS_P1;SDS_P2;PMS_P1;PMS_P2;Temp;Humidity;BMP_temperature;BMP_pressure;BME280_temperature;BME280_humidity;BME280_pressure;Samples;Min_cycle;Max_cycle;Signal;HPM_P1;HPM_P2
2022/04/07 00:05:15;;;;;;;21.92;11.25;;;;;;;8.88;64.41;99128.44;18371478;32;20086;-65
2022/04/07 00:15:18;;;;;;;34.95;15.70;;;;;;;8.77;66.21;99117.34;18371416;32;20109;-66
2022/04/07 00:25:23;;;;;;;27.00;14.32;;;;;;;8.77;65.90;99104.34;18370915;32;20099;-65
2022/04/07 00:35:27;;;;;;;23.30;13.85;;;;;;;8.67;66.00;99090.59;18370759;32;20100;-65
2022/04/07 00:45:31;;;;;;;24.87;13.00;;;;;;;8.59;65.67;99089.00;18370753;32;20116;-65
2022/04/07 00:55:35;;;;;;;23.52;13.82;;;;;;;8.57;66.25;99074.28;18370310;32;20188;-65
2022/04/07 01:05:39;;;;;;;23.65;12.18;;;;;;;8.74;65.35;99055.81;18370010;32;20097;-66
2022/04/07 01:15:43;;;;;;;21.17;12.05;;;;;;;8.47;66.00;99051.00;18370368;32;20446;-65
2022/04/07 01:25:49;;;;;;;25.10;12.40;;;;;;;8.12;67.68;99038.53;18369466;32;20092;-65
2022/04/07 01:35:52;;;;;;;24.98;10.70;;;;;;;8.09;68.17;99041.16;18368893;32;20108;-65
2022/04/07 01:45:57;;;;;;;16.55;8.15;;;;;;;8.18;67.96;99047.09;18369078;32;20115;-65
2022/04/07 01:56:00;;;;;;;13.93;7.40;;;;;;;8.51;68.42;99037.97;18368411;32;20103;-65
2022/04/07 02:06:16;;;;;;;16.45;6.78;;;;;;;8.68;67.78;99017.75;18368446;32;20101;-65
2022/04/07 02:16:20;;;;;;;12.52;6.00;;;;;;;8.88;66.18;99016.53;18368223;32;20093;-65
2022/04/07 02:26:25;;;;;;;12.80;6.68;;;;;;;9.00;64.61;98995.50;18368467;32;20101;-65
2022/04/07 02:36:28;;;;;;;13.20;6.47;;;;;;;8.93;64.37;98980.91;18366958;32;20123;-66
2022/04/07 02:46:33;;;;;;;14.10;6.62;;;;;;;8.62;65.24;98984.03;18367395;32;20089;-66
2022/04/07 02:56:36;;;;;;;12.88;7.18;;;;;;;8.55;65.71;98957.25;18366290;32;20492;-66
2022/04/07 03:06:41;;;;;;;14.15;6.35;;;;;;;8.15;67.18;98952.69;18366168;32;20120;-65
2022/04/07 03:16:48;;;;;;;11.43;5.78;;;;;;;8.82;65.90;98917.75;18372960;32;20474;-65
2022/04/07 03:26:53;;;;;;;11.30;5.18;;;;;;;9.37;63.09;98883.69;18372892;32;20358;-65
2022/04/07 03:36:56;;;;;;;12.50;5.95;;;;;;;8.89;65.02;98888.13;18372196;32;20093;-65
2022/04/07 03:47:01;;;;;;;14.02;6.18;;;;;;;9.02;63.96;98894.84;18371977;32;20120;-65
2022/04/07 03:57:05;;;;;;;12.93;5.32;;;;;;;9.04;64.24;98886.97;18371952;32;20381;-66
2022/04/07 04:07:09;;;;;;;12.63;5.57;;;;;;;9.04;63.89;98875.72;18371816;32;20105;-66
2022/04/07 04:17:13;;;;;;;10.45;5.72;;;;;;;9.28;63.57;98854.34;18371314;32;20089;-65
2022/04/07 04:27:17;;;;;;;10.93;5.12;;;;;;;9.54;62.87;98852.09;18370935;32;20116;-65
2022/04/07 04:37:25;;;;;;;12.27;5.80;;;;;;;9.33;62.49;98853.41;18365777;32;157444;-66
2022/04/07 04:47:31;;;;;;;9.93;5.80;;;;;;;9.05;63.59;98856.59;18367504;32;20108;-65
2022/04/07 04:57:34;;;;;;;9.32;4.93;;;;;;;9.00;64.80;98838.47;18364635;32;20086;-65
2022/04/07 05:07:39;;;;;;;11.88;6.72;;;;;;;9.04;64.87;98854.91;18367309;32;20089;-65
2022/04/07 05:17:42;;;;;;;16.98;9.60;;;;;;;9.09;64.89;98853.03;18366443;32;22797;-66
2022/04/07 05:27:47;;;;;;;15.77;8.70;;;;;;;9.46;63.69;98841.81;18363397;32;20639;-66
2022/04/07 05:37:50;;;;;;;17.62;8.80;;;;;;;9.52;64.95;98856.44;18367699;32;20093;-66
2022/04/07 05:47:55;;;;;;;16.73;8.32;;;;;;;9.80;64.76;98859.28;18367175;32;20401;-65
2022/04/07 05:58:02;;;;;;;15.13;7.40;;;;;;;10.05;63.48;98852.63;18367825;32;20432;-66
2022/04/07 06:08:07;;;;;;;11.18;5.15;;;;;;;10.27;62.85;98858.97;18366465;32;20346;-66
2022/04/07 07:51:37;;;;;;;11.23;5.43;;;;;;;14.81;55.15;98929.19;18674491;31;201563;-66
2022/04/07 08:01:43;;;;;;;9.38;4.55;;;;;;;14.81;55.15;98929.19;18629760;31;20100;-66
2022/04/07 08:11:48;;;;;;;8.43;3.35;;;;;;;14.49;54.78;98938.41;18629951;31;20095;-67
2022/04/07 08:21:52;;;;;;;8.95;3.85;;;;;;;15.04;50.85;98947.50;18652781;31;20451;-67
2022/04/07 08:31:57;;;;;;;9.30;4.57;;;;;;;14.93;47.41;98951.44;18638656;31;20111;-67
2022/04/07 08:42:01;;;;;;;12.00;6.30;;;;;;;15.29;47.29;98973.56;18653592;31;20366;-67
2022/04/07 08:52:08;;;;;;;9.35;4.05;;;;;;;14.98;48.42;98969.63;18601466;31;20100;-67
2022/04/07 09:02:11;;;;;;;8.93;3.85;;;;;;;15.23;47.69;98966.78;18592793;31;20092;-67
2022/04/07 09:12:24;;;;;;;8.35;3.42;;;;;;;15.28;46.54;98937.66;18597071;31;20422;-67
2022/04/07 09:22:31;;;;;;;6.82;3.80;;;;;;;15.65;47.94;98935.13;18585394;31;20436;-68
2022/04/07 09:32:42;;;;;;;7.95;3.72;;;;;;;16.06;45.77;98919.16;18584704;31;20091;-67
2022/04/07 09:42:45;;;;;;;7.60;3.13;;;;;;;15.96;44.92;98917.91;18585104;31;20390;-67
2022/04/07 09:52:58;;;;;;;8.23;3.22;;;;;;;16.44;43.64;98910.28;18571908;31;20104;-67
2022/04/07 10:03:02;;;;;;;7.15;3.33;;;;;;;16.40;43.40;98898.19;18625073;31;20119;-67
2022/04/07 10:13:07;;;;;;;7.55;3.50;;;;;;;16.78;42.37;98903.28;18613597;31;20098;-67
2022/04/07 10:23:21;;;;;;;9.05;3.62;;;;;;;17.57;40.17;98892.12;18584011;31;20136;-67
2022/04/07 10:33:39;;;;;;;7.22;2.80;;;;;;;18.09;40.45;98877.81;18581391;31;20095;-67
2022/04/07 10:44:07;;;;;;;6.68;2.95;;;;;;;18.70;39.12;98874.28;18579363;31;20454;-67
2022/04/07 10:54:13;;;;;;;6.53;2.87;;;;;;;18.86;38.28;98863.59;18591849;31;20140;-67
2022/04/07 11:04:56;;;;;;;6.93;3.00;;;;;;;19.81;36.28;98832.09;18606781;31;20103;-67
2022/04/07 11:15:19;;;;;;;7.53;3.17;;;;;;;19.75;35.54;98816.62;18625476;31;20382;-67
2022/04/07 11:25:24;;;;;;;5.93;2.78;;;;;;;19.63;37.99;98815.62;18558360;31;20096;-67
2022/04/07 11:35:29;;;;;;;8.13;3.22;;;;;;;19.41;37.09;98814.38;18545100;31;20118;-67
2022/04/07 11:45:32;;;;;;;6.47;3.00;;;;;;;20.29;34.86;98808.72;18558543;31;20149;-67
2022/04/07 11:55:37;;;;;;;7.22;2.97;;;;;;;20.54;34.66;98796.44;18558178;31;20649;-67
2022/04/07 12:05:42;;;;;;;8.07;2.70;;;;;;;20.99;34.79;98774.75;18543462;31;20096;-67
2022/04/07 12:15:47;;;;;;;5.00;2.85;;;;;;;21.03;32.37;98760.31;18556430;32;20092;-68
2022/04/07 12:25:58;;;;;;;5.75;2.87;;;;;;;21.46;31.61;98751.87;18544515;31;20097;-67
2022/04/07 12:36:02;;;;;;;6.10;2.97;;;;;;;20.34;34.28;98743.84;18562565;31;20128;-67
2022/04/07 12:46:07;;;;;;;6.60;3.17;;;;;;;20.96;33.82;98735.16;18562129;32;20095;-67
2022/04/07 12:56:21;;;;;;;8.57;3.10;;;;;;;21.59;31.61;98729.69;18559588;31;20439;-68
2022/04/07 13:06:25;;;;;;;7.55;3.15;;;;;;;20.23;32.95;98714.59;18563936;31;20092;-67
2022/04/07 13:16:30;;;;;;;5.65;2.45;;;;;;;19.76;33.80;98693.88;18563153;32;20107;-67
2022/04/07 13:26:33;;;;;;;3.42;1.92;;;;;;;20.43;32.97;98683.22;18611627;31;20092;-68
2022/04/07 13:36:38;;;;;;;6.53;2.53;;;;;;;20.73;31.08;98679.31;18614157;31;20084;-68
2022/04/07 13:46:41;;;;;;;5.20;2.25;;;;;;;20.26;32.32;98655.25;18628174;31;20148;-67
2022/04/07 13:56:46;;;;;;;6.95;2.70;;;;;;;20.15;33.28;98645.41;18613737;31;20142;-70
2022/04/07 14:06:49;;;;;;;8.80;2.50;;;;;;;19.05;35.51;98643.87;18613008;31;20144;-67
2022/04/07 14:16:54;;;;;;;5.32;2.17;;;;;;;20.52;33.26;98616.28;18612805;31;20114;-67
2022/04/07 14:26:57;;;;;;;4.15;2.35;;;;;;;21.17;32.95;98598.31;18627890;31;20112;-67
2022/04/07 14:37:02;;;;;;;4.70;2.30;;;;;;;20.45;32.48;98578.78;18611931;31;20099;-67
2022/04/07 14:47:06;;;;;;;6.60;2.50;;;;;;;21.34;31.81;98572.28;18622349;31;20111;-69
2022/04/07 14:57:11;;;;;;;6.25;2.30;;;;;;;22.25;31.00;98566.22;18560463;31;20148;-69
2022/04/07 15:07:15;;;;;;;4.05;2.22;;;;;;;21.93;30.57;98545.72;18606362;31;20087;-67
2022/04/07 15:17:19;;;;;;;4.12;1.90;;;;;;;21.92;31.78;98539.56;18567076;31;20100;-69
2022/04/07 15:27:22;;;;;;;3.60;1.73;;;;;;;21.95;32.42;98549.94;18540373;31;20163;-68
2022/04/07 15:37:28;;;;;;;4.53;2.00;;;;;;;21.62;32.47;98560.41;18549678;31;20712;-67
2022/04/07 15:47:31;;;;;;;3.17;1.73;;;;;;;21.64;33.12;98557.62;18551487;31;20167;-67
2022/04/07 15:57:39;;;;;;;5.72;2.00;;;;;;;21.72;33.18;98549.97;18553675;31;20137;-68
2022/04/07 16:07:43;;;;;;;4.00;1.80;;;;;;;21.80;33.06;98557.31;18562011;31;20185;-67
2022/04/07 16:17:47;;;;;;;2.03;1.40;;;;;;;21.58;33.65;98542.19;18548526;32;20096;-67
2022/04/07 16:27:51;;;;;;;2.47;1.40;;;;;;;21.21;33.50;98533.44;18543214;31;20100;-67
2022/04/07 16:37:56;;;;;;;2.20;1.77;;;;;;;20.71;34.73;98523.00;18551237;32;20088;-67
2022/04/07 16:48:01;;;;;;;2.00;0.90;;;;;;;20.63;33.50;98530.66;18561920;31;20100;-67
2022/04/07 16:58:08;;;;;;;1.50;0.85;;;;;;;20.23;34.12;98535.28;18543574;31;20112;-67
2022/04/07 17:08:12;;;;;;;6.40;1.45;;;;;;;19.75;35.28;98541.31;18559225;31;20112;-67
2022/04/07 17:18:17;;;;;;;2.50;1.15;;;;;;;19.15;36.59;98548.06;18562521;32;20110;-67
2022/04/07 17:28:24;;;;;;;1.42;1.05;;;;;;;18.39;38.64;98553.84;18557916;31;20104;-67
2022/04/07 17:38:28;;;;;;;3.42;1.23;;;;;;;17.65;40.10;98561.91;18554005;31;20111;-67
2022/04/07 17:48:31;;;;;;;2.03;1.02;;;;;;;17.11;42.13;98569.44;18555272;31;20121;-67
2022/04/07 17:58:36;;;;;;;23.98;11.07;;;;;;;16.03;44.94;98594.72;18552831;31;20100;-67
2022/04/07 18:08:39;;;;;;;11.55;4.65;;;;;;;15.84;48.07;98598.34;18547554;32;20096;-67
2022/04/07 18:18:45;;;;;;;8.93;4.53;;;;;;;16.45;46.63;98603.88;18554987;31;20148;-67
2022/04/07 18:28:48;;;;;;;10.02;5.25;;;;;;;16.72;45.79;98616.44;18556802;31;20096;-67
2022/04/07 18:38:54;;;;;;;13.57;5.47;;;;;;;16.56;46.41;98642.78;18542291;31;20437;-68
2022/04/07 18:48:59;;;;;;;10.82;5.22;;;;;;;16.57;45.95;98655.03;18556115;31;20182;-67
2022/04/07 18:59:04;;;;;;;13.75;5.60;;;;;;;16.43;46.70;98634.72;18560482;32;20092;-67
2022/04/07 19:09:07;;;;;;;11.77;5.93;;;;;;;16.26;46.92;98651.41;18551388;31;20104;-68
2022/04/07 19:19:13;;;;;;;9.80;5.03;;;;;;;15.78;48.00;98674.94;18559687;32;20137;-67
2022/04/07 19:29:17;;;;;;;11.63;5.10;;;;;;;15.76;47.96;98676.81;18554046;31;20440;-67
2022/04/07 19:39:21;;;;;;;9.80;4.97;;;;;;;15.55;48.71;98695.34;18558512;32;20170;-67
2022/04/07 19:49:25;;;;;;;10.90;4.62;;;;;;;15.40;48.72;98695.22;18590045;31;20147;-67
2022/04/07 19:59:29;;;;;;;12.30;6.62;;;;;;;15.07;50.12;98677.53;18605102;31;20092;-67
2022/04/07 20:09:34;;;;;;;12.57;6.55;;;;;;;15.11;49.40;98631.78;18619764;31;20099;-67
2022/04/07 20:19:38;;;;;;;10.02;5.05;;;;;;;14.48;51.69;98661.88;18607241;31;20169;-67
2022/04/07 20:29:41;;;;;;;12.70;5.70;;;;;;;14.40;52.56;98651.72;18580427;31;20105;-67
2022/04/07 20:39:46;;;;;;;10.00;5.37;;;;;;;14.34;53.16;98657.25;18582894;31;20111;-69
2022/04/07 20:49:54;;;;;;;12.73;6.50;;;;;;;14.04;53.59;98649.00;18566493;32;20092;-67
2022/04/07 20:59:58;;;;;;;12.60;6.40;;;;;;;13.83;53.67;98625.41;18564744;32;20088;-67
2022/04/07 21:10:02;;;;;;;12.13;5.57;;;;;;;13.79;54.65;98634.34;18564910;32;20096;-67
2022/04/07 21:20:08;;;;;;;11.88;5.10;;;;;;;13.38;55.82;98629.94;18565463;32;20088;-66
2022/04/07 21:30:11;;;;;;;12.75;4.68;;;;;;;13.18;56.49;98614.16;18549749;32;20148;-66
2022/04/07 21:40:16;;;;;;;10.18;4.85;;;;;;;12.71;57.53;98632.62;18550340;32;20491;-66
2022/04/07 21:50:20;;;;;;;18.73;7.85;;;;;;;12.69;57.29;98644.91;18550006;32;20088;-67
2022/04/07 22:00:35;;;;;;;16.70;8.30;;;;;;;12.36;58.52;98635.69;18563462;32;20106;-66
2022/04/07 22:10:38;;;;;;;17.15;8.25;;;;;;;12.48;58.91;98642.22;18549796;32;20489;-66
2022/04/07 22:20:43;;;;;;;16.37;7.60;;;;;;;12.73;58.24;98638.66;18548360;32;20092;-66
2022/04/07 22:30:47;;;;;;;12.57;6.82;;;;;;;12.31;60.13;98643.72;18547666;32;20092;-66
2022/04/07 22:40:51;;;;;;;15.82;6.78;;;;;;;12.62;58.95;98637.31;18563436;32;20103;-66
2022/04/07 22:50:55;;;;;;;12.48;5.95;;;;;;;13.02;57.98;98631.41;18547358;32;20138;-66
2022/04/07 23:00:59;;;;;;;10.10;4.85;;;;;;;13.74;55.95;98630.16;18561372;32;20102;-66
2022/04/07 23:11:02;;;;;;;12.63;5.12;;;;;;;14.25;53.34;98615.69;18560572;32;20140;-66
2022/04/07 23:21:07;;;;;;;11.30;4.90;;;;;;;14.26;53.87;98622.63;18560479;32;20097;-67
2022/04/07 23:31:11;;;;;;;11.68;4.87;;;;;;;14.58;52.81;98612.41;18560080;32;20143;-66
2022/04/07 23:41:16;;;;;;;8.75;4.10;;;;;;;14.49;53.16;98605.81;18559531;32;20115;-66
2022/04/07 23:51:19;;;;;;;8.98;4.00;;;;;;;14.16;54.11;98601.22;18558822;32;20128;-66
